Time;durP1;ratioP1;P1;durP2;ratioP2;P2;SDS_P1;SDS_P2;PMS_P1;PMS_P2;Temp;Humidity;BMP_temperature;BMP_pressure;BME280_temperature;BME280_humidity;BME280_pressure;Samples;Min_cycle;Max_cycle;Signal;HPM_P1;HPM_P2
2021/10/11 00:01:51;;;;;;;8.13;3.83;;;;;;;;;;5035158;28;20045;-53
2021/10/11 00:04:17;;;;;;;10.18;4.93;;;;;;;;;;5034334;28;20340;-53
2021/10/11 00:06:43;;;;;;;9.75;4.43;;;;;;;;;;5035097;28;20104;-53
2021/10/11 00:09:09;;;;;;;11.80;5.25;;;;;;;;;;5034816;28;20091;-53
2021/10/11 00:11:35;;;;;;;11.70;4.05;;;;;;;;;;5034339;28;20033;-53
2021/10/11 00:14:01;;;;;;;10.65;4.38;;;;;;;;;;5033600;28;20422;-53
2021/10/11 00:16:28;;;;;;;10.25;4.68;;;;;;;;;;5034863;28;20361;-53
2021/10/11 00:18:55;;;;;;;10.85;4.00;;;;;;;;;;5034479;28;20032;-53
2021/10/11 00:21:21;;;;;;;5.65;3.33;;;;;;;;;;5034672;28;20021;-53
2021/10/11 00:23:47;;;;;;;12.90;4.30;;;;;;;;;;5034077;28;20424;-53
2021/10/11 00:26:13;;;;;;;9.85;4.53;;;;;;;;;;5034703;28;20025;-53
2021/10/11 00:28:39;;;;;;;9.13;4.30;;;;;;;;;;5034517;28;20029;-53
2021/10/11 00:31:05;;;;;;;9.63;4.72;;;;;;;;;;5034062;28;20057;-53
2021/10/11 00:33:31;;;;;;;7.90;4.20;;;;;;;;;;5034068;28;20037;-53
2021/10/11 00:35:57;;;;;;;9.45;4.65;;;;;;;;;;5034120;28;20029;-53
2021/10/11 00:38:23;;;;;;;12.25;4.55;;;;;;;;;;5034684;28;20030;-53
2021/10/11 00:40:49;;;;;;;7.82;4.38;;;;;;;;;;5034055;28;20091;-53
2021/10/11 00:43:15;;;;;;;9.65;4.45;;;;;;;;;;5034020;28;20029;-53
2021/10/11 00:45:41;;;;;;;13.82;4.55;;;;;;;;;;5033327;28;20394;-53
2021/10/11 00:48:07;;;;;;;9.50;4.55;;;;;;;;;;5034277;28;20025;-53
2021/10/11 00:50:33;;;;;;;10.13;3.65;;;;;;;;;;5033889;28;20021;-53
2021/10/11 00:52:59;;;;;;;10.30;4.10;;;;;;;;;;5034166;28;20025;-53
2021/10/11 00:55:25;;;;;;;8.38;4.35;;;;;;;;;;5033182;28;20022;-53
2021/10/11 00:57:51;;;;;;;7.75;4.28;;;;;;;;;;5033748;28;20021;-53
2021/10/11 01:00:17;;;;;;;12.75;4.57;;;;;;;;;;5033774;28;20044;-53
2021/10/11 01:02:43;;;;;;;11.95;4.65;;;;;;;;;;5033613;28;20040;-53
2021/10/11 01:05:09;;;;;;;8.13;4.20;;;;;;;;;;5033313;28;20431;-53
2021/10/11 01:07:35;;;;;;;8.57;4.25;;;;;;;;;;5033994;28;20026;-53
2021/10/11 01:10:02;;;;;;;8.70;4.47;;;;;;;;;;5033709;28;20030;-53
2021/10/11 01:12:28;;;;;;;9.82;4.32;;;;;;;;;;5033148;28;20159;-53
2021/10/11 01:14:54;;;;;;;11.23;4.90;;;;;;;;;;5032846;28;20109;-53
2021/10/11 01:17:20;;;;;;;9.65;4.35;;;;;;;;;;5033936;28;20025;-53
2021/10/11 01:19:48;;;;;;;10.48;4.28;;;;;;;;;;5033102;28;20095;-53
2021/10/11 01:22:14;;;;;;;10.52;4.38;;;;;;;;;;5033571;28;20029;-53
2021/10/11 01:24:40;;;;;;;12.35;4.18;;;;;;;;;;5032624;28;20512;-53
2021/10/11 01:27:06;;;;;;;6.03;3.78;;;;;;;;;;5033542;28;20021;-53
2021/10/11 01:29:32;;;;;;;10.27;4.75;;;;;;;;;;5033243;28;20033;-53
2021/10/11 01:31:58;;;;;;;11.50;5.15;;;;;;;;;;5033353;28;20025;-53
2021/10/11 01:34:24;;;;;;;8.85;4.18;;;;;;;;;;5032833;28;20065;-53
2021/10/11 01:36:49;;;;;;;9.57;4.70;;;;;;;;;;5032978;28;20454;-53
2021/10/11 01:39:16;;;;;;;10.00;4.93;;;;;;;;;;5032739;28;20029;-53
2021/10/11 01:41:42;;;;;;;13.75;4.75;;;;;;;;;;5032807;28;20057;-53
2021/10/11 01:44:08;;;;;;;9.57;3.97;;;;;;;;;;5032425;28;20426;-53
2021/10/11 01:46:35;;;;;;;7.72;3.53;;;;;;;;;;5033215;28;20053;-53
2021/10/11 01:49:01;;;;;;;17.55;4.45;;;;;;;;;;5033293;28;20100;-53
2021/10/11 01:51:27;;;;;;;15.38;4.63;;;;;;;;;;5033563;28;20033;-53
2021/10/11 01:53:53;;;;;;;7.72;4.13;;;;;;;;;;5032196;28;20037;-53
2021/10/11 01:56:19;;;;;;;7.68;4.45;;;;;;;;;;5032655;28;20021;-53
2021/10/11 01:58:45;;;;;;;7.25;3.70;;;;;;;;;;5033100;28;20032;-53
2021/10/11 02:01:11;;;;;;;9.10;4.05;;;;;;;;;;5032927;28;20017;-53
2021/10/11 02:03:37;;;;;;;12.77;4.35;;;;;;;;;;5032155;28;20064;-53
2021/10/11 02:06:03;;;;;;;7.32;4.00;;;;;;;;;;5032849;28;20111;-53
2021/10/11 02:08:29;;;;;;;9.90;4.07;;;;;;;;;;5033808;28;20084;-53
2021/10/11 02:10:55;;;;;;;10.15;4.55;;;;;;;;;;5052743;28;20481;-53
2021/10/11 02:13:21;;;;;;;7.80;4.03;;;;;;;;;;5052596;28;20107;-53
2021/10/11 02:15:47;;;;;;;11.02;4.45;;;;;;;;;;5051656;28;20032;-53
2021/10/11 02:18:13;;;;;;;10.55;4.30;;;;;;;;;;5052372;28;20098;-52
2021/10/11 02:20:39;;;;;;;10.10;4.75;;;;;;;;;;5052599;28;20025;-53
2021/10/11 02:23:05;;;;;;;8.55;4.18;;;;;;;;;;5052557;28;20363;-53
2021/10/11 02:25:32;;;;;;;10.77;4.22;;;;;;;;;;5052140;28;20100;-53
2021/10/11 02:27:59;;;;;;;9.77;4.80;;;;;;;;;;5052473;28;20351;-53
2021/10/11 02:30:25;;;;;;;10.40;5.00;;;;;;;;;;5052499;28;20033;-53
2021/10/11 02:32:51;;;;;;;13.23;5.65;;;;;;;;;;5052551;28;20025;-53
2021/10/11 02:35:18;;;;;;;8.52;5.32;;;;;;;;;;5055576;28;20033;-53
2021/10/11 02:37:44;;;;;;;9.45;5.05;;;;;;;;;;5052946;28;20020;-53
2021/10/11 02:40:11;;;;;;;8.05;4.22;;;;;;;;;;5041677;28;20439;-53
2021/10/11 02:42:37;;;;;;;9.80;4.10;;;;;;;;;;5036456;28;20029;-53
2021/10/11 02:45:03;;;;;;;8.68;4.78;;;;;;;;;;5054346;28;20045;-53
2021/10/11 02:47:30;;;;;;;8.90;4.50;;;;;;;;;;5052923;28;20439;-53
2021/10/11 02:49:56;;;;;;;12.20;4.47;;;;;;;;;;5036354;28;20329;-52
2021/10/11 02:52:22;;;;;;;10.52;4.65;;;;;;;;;;5036242;28;20025;-53
2021/10/11 02:54:48;;;;;;;7.38;4.07;;;;;;;;;;5034995;28;20471;-53
2021/10/11 02:57:13;;;;;;;8.75;4.38;;;;;;;;;;5036461;28;20025;-53
2021/10/11 02:59:39;;;;;;;12.93;4.13;;;;;;;;;;5036274;28;20028;-53
2021/10/11 03:02:05;;;;;;;9.23;4.30;;;;;;;;;;5035876;28;20462;-53
2021/10/11 03:04:31;;;;;;;9.70;4.13;;;;;;;;;;5035621;28;20021;-53
2021/10/11 03:06:57;;;;;;;6.10;3.58;;;;;;;;;;5035963;28;20412;-53
2021/10/11 03:09:23;;;;;;;7.65;4.20;;;;;;;;;;5035920;28;20105;-53
2021/10/11 03:11:49;;;;;;;8.32;4.30;;;;;;;;;;5036249;28;20025;-53
2021/10/11 03:14:15;;;;;;;6.68;3.55;;;;;;;;;;5034854;28;20044;-53
2021/10/11 03:16:41;;;;;;;15.48;3.92;;;;;;;;;;5036003;28;20022;-53
2021/10/11 03:19:07;;;;;;;8.68;4.00;;;;;;;;;;5035655;28;20040;-53
2021/10/11 03:21:33;;;;;;;7.18;4.35;;;;;;;;;;5035753;28;20107;-53
2021/10/11 03:23:59;;;;;;;11.27;3.75;;;;;;;;;;5034496;28;20029;-53
2021/10/11 03:26:25;;;;;;;10.57;4.75;;;;;;;;;;5035753;28;20030;-53
2021/10/11 03:28:51;;;;;;;6.65;4.10;;;;;;;;;;5036039;28;20113;-53
2021/10/11 03:31:17;;;;;;;7.13;3.40;;;;;;;;;;5035600;28;20125;-53
2021/10/11 03:33:43;;;;;;;9.45;4.07;;;;;;;;;;5034596;28;20112;-53
2021/10/11 03:36:09;;;;;;;7.47;4.13;;;;;;;;;;5035938;28;20199;-53
2021/10/11 03:38:35;;;;;;;6.05;3.83;;;;;;;;;;5035364;28;20617;-53
2021/10/11 03:41:01;;;;;;;8.57;4.25;;;;;;;;;;5035531;28;20017;-53
2021/10/11 03:43:27;;;;;;;13.57;4.25;;;;;;;;;;5035251;28;20359;-53
2021/10/11 03:45:55;;;;;;;7.40;4.07;;;;;;;;;;5034014;28;20022;-53
2021/10/11 03:48:22;;;;;;;8.05;4.00;;;;;;;;;;5035157;28;20034;-53
2021/10/11 03:50:47;;;;;;;20.67;4.57;;;;;;;;;;5035080;28;20124;-53
2021/10/11 03:53:14;;;;;;;7.50;4.22;;;;;;;;;;5034990;28;20491;-53
2021/10/11 03:55:41;;;;;;;10.32;4.80;;;;;;;;;;5034165;28;20509;-53
2021/10/11 03:58:07;;;;;;;7.80;3.63;;;;;;;;;;5035036;28;20099;-52
2021/10/11 04:00:33;;;;;;;10.20;4.38;;;;;;;;;;5035297;28;20030;-53
2021/10/11 04:03:03;;;;;;;9.30;4.80;;;;;;;;;;5034933;28;20391;-53
2021/10/11 04:05:29;;;;;;;7.38;4.20;;;;;;;;;;5033578;28;20443;-53
2021/10/11 04:07:58;;;;;;;7.25;4.38;;;;;;;;;;5034836;28;20463;-53
2021/10/11 04:10:28;;;;;;;9.82;4.28;;;;;;;;;;5034689;28;20364;-53
2021/10/11 04:13:01;;;;;;;9.68;4.53;;;;;;;;;;5034982;28;20072;-54
2021/10/11 04:15:27;;;;;;;7.63;4.25;;;;;;;;;;5033971;28;20045;-53
2021/10/11 04:17:55;;;;;;;8.73;4.07;;;;;;;;;;5034815;28;20032;-53
2021/10/11 04:20:21;;;;;;;9.90;5.53;;;;;;;;;;5034270;28;20068;-53
2021/10/11 04:22:47;;;;;;;8.88;4.45;;;;;;;;;;5034620;28;20025;-53
2021/10/11 04:25:13;;;;;;;13.50;4.30;;;;;;;;;;5033613;28;20383;-53
2021/10/11 04:27:39;;;;;;;11.60;3.92;;;;;;;;;;5034689;28;20049;-53
2021/10/11 04:30:06;;;;;;;8.27;4.30;;;;;;;;;;5034259;28;20033;-53
2021/10/11 04:32:32;;;;;;;8.38;4.35;;;;;;;;;;5034525;28;20060;-53
2021/10/11 04:34:58;;;;;;;9.57;4.40;;;;;;;;;;5033563;28;20073;-53
2021/10/11 04:37:24;;;;;;;12.05;4.45;;;;;;;;;;5034890;28;20059;-53
2021/10/11 04:39:50;;;;;;;11.43;4.18;;;;;;;;;;5033853;28;20088;-53
2021/10/11 04:42:16;;;;;;;7.70;4.40;;;;;;;;;;5034470;28;20032;-53
2021/10/11 04:44:42;;;;;;;9.90;4.32;;;;;;;;;;5033483;28;20021;-53
2021/10/11 04:47:08;;;;;;;8.68;4.22;;;;;;;;;;5033844;28;20021;-53
2021/10/11 04:49:34;;;;;;;7.82;4.57;;;;;;;;;;5034285;28;20512;-53
2021/10/11 04:52:00;;;;;;;7.25;3.75;;;;;;;;;;5034125;28;20022;-52
2021/10/11 04:54:26;;;;;;;7.47;3.95;;;;;;;;;;5032832;28;20037;-53
2021/10/11 04:56:52;;;;;;;8.13;3.80;;;;;;;;;;5033779;28;20053;-53
2021/10/11 04:59:18;;;;;;;12.43;4.80;;;;;;;;;;5033940;28;20136;-53
2021/10/11 05:01:44;;;;;;;14.02;4.50;;;;;;;;;;5033509;28;20032;-53
2021/10/11 05:04:10;;;;;;;11.57;4.72;;;;;;;;;;5033126;28;20040;-53
2021/10/11 05:06:37;;;;;;;13.90;4.90;;;;;;;;;;5033756;28;20105;-53
2021/10/11 05:09:03;;;;;;;14.18;4.50;;;;;;;;;;5033829;28;20033;-53
2021/10/11 05:11:30;;;;;;;9.25;4.47;;;;;;;;;;5033754;28;20112;-53
2021/10/11 05:13:56;;;;;;;11.95;4.57;;;;;;;;;;5033155;28;20068;-53
2021/10/11 05:16:23;;;;;;;11.32;4.65;;;;;;;;;;5033400;28;20144;-52
2021/10/11 05:18:49;;;;;;;11.50;4.70;;;;;;;;;;5033319;28;20117;-53
2021/10/11 05:21:15;;;;;;;11.48;4.93;;;;;;;;;;5033296;28;20418;-53
2021/10/11 05:23:41;;;;;;;12.73;4.93;;;;;;;;;;5032955;28;20025;-53
2021/10/11 05:26:07;;;;;;;16.70;5.22;;;;;;;;;;5033624;28;20075;-53
2021/10/11 05:28:33;;;;;;;12.43;5.15;;;;;;;;;;5033445;28;20068;-52
2021/10/11 05:30:59;;;;;;;14.43;4.38;;;;;;;;;;5032699;28;20071;-53
2021/10/11 05:33:25;;;;;;;8.32;4.63;;;;;;;;;;5033468;28;20033;-53
2021/10/11 05:35:53;;;;;;;11.55;4.75;;;;;;;;;;5033095;28;20076;-53
2021/10/11 05:38:19;;;;;;;10.90;3.90;;;;;;;;;;5033586;28;20029;-52
2021/10/11 05:40:46;;;;;;;11.65;4.93;;;;;;;;;;5033122;28;20022;-52
2021/10/11 05:43:12;;;;;;;10.35;4.97;;;;;;;;;;5031901;28;20021;-53
2021/10/11 05:45:38;;;;;;;13.75;4.57;;;;;;;;;;5032523;28;20025;-53
2021/10/11 05:48:04;;;;;;;9.90;4.57;;;;;;;;;;5033566;28;20026;-53
2021/10/11 05:50:30;;;;;;;15.13;5.28;;;;;;;;;;5032936;28;20088;-53
2021/10/11 05:52:56;;;;;;;12.68;4.63;;;;;;;;;;5032765;28;20021;-53
2021/10/11 05:55:22;;;;;;;13.15;4.97;;;;;;;;;;5032077;28;20348;-53
2021/10/11 05:57:48;;;;;;;9.07;5.03;;;;;;;;;;5033046;28;20117;-53
2021/10/11 06:00:15;;;;;;;13.27;5.03;;;;;;;;;;5032946;28;20115;-53
2021/10/11 06:02:41;;;;;;;9.15;5.43;;;;;;;;;;5031191;28;20056;-53
2021/10/11 06:05:07;;;;;;;9.38;4.82;;;;;;;;;;5032527;28;20029;-53
2021/10/11 06:07:33;;;;;;;14.55;4.13;;;;;;;;;;5032348;28;20025;-53
2021/10/11 06:09:59;;;;;;;11.88;5.10;;;;;;;;;;5032634;28;20075;-53
2021/10/11 06:12:25;;;;;;;11.73;4.35;;;;;;;;;;5032850;28;20104;-53
2021/10/11 06:14:54;;;;;;;10.00;4.78;;;;;;;;;;5031907;28;20053;-53
2021/10/11 06:17:20;;;;;;;11.52;4.47;;;;;;;;;;5032842;28;20026;-52
2021/10/11 06:19:46;;;;;;;10.15;4.72;;;;;;;;;;5032344;28;20026;-53
2021/10/11 06:22:12;;;;;;;12.63;5.18;;;;;;;;;;5032172;28;20108;-53
2021/10/11 06:24:38;;;;;;;15.32;5.22;;;;;;;;;;5032232;28;20025;-53
2021/10/11 06:27:04;;;;;;;13.27;5.50;;;;;;;;;;5032663;28;20026;-53
2021/10/11 06:29:30;;;;;;;11.80;5.72;;;;;;;;;;5032463;28;20410;-54
2021/10/11 06:31:56;;;;;;;12.00;5.32;;;;;;;;;;5032404;28;20462;-53
2021/10/11 06:34:22;;;;;;;11.00;4.80;;;;;;;;;;5031836;28;20034;-53
2021/10/11 06:36:49;;;;;;;16.08;5.43;;;;;;;;;;5032291;28;20113;-53
2021/10/11 06:39:15;;;;;;;13.20;5.57;;;;;;;;;;5033011;28;20029;-53
2021/10/11 06:41:41;;;;;;;9.95;4.53;;;;;;;;;;5032265;28;20427;-53
2021/10/11 06:44:07;;;;;;;12.02;5.80;;;;;;;;;;5031833;28;20117;-53
2021/10/11 06:46:33;;;;;;;12.52;5.05;;;;;;;;;;5032547;28;20064;-53
2021/10/11 06:48:59;;;;;;;13.23;5.03;;;;;;;;;;5032439;28;20439;-53
2021/10/11 06:51:25;;;;;;;11.05;5.38;;;;;;;;;;5032464;28;20029;-53
2021/10/11 06:53:51;;;;;;;13.10;5.88;;;;;;;;;;5031660;28;20041;-53
2021/10/11 06:56:17;;;;;;;16.42;5.40;;;;;;;;;;5032546;28;20111;-53
2021/10/11 06:58:43;;;;;;;18.55;6.43;;;;;;;;;;5032545;28;20025;-53
2021/10/11 07:01:09;;;;;;;10.75;5.18;;;;;;;;;;5030936;28;20447;-53
2021/10/11 07:03:37;;;;;;;12.93;5.35;;;;;;;;;;5031658;28;20025;-54
2021/10/11 07:06:06;;;;;;;22.02;5.65;;;;;;;;;;5032593;28;20491;-53
2021/10/11 07:08:33;;;;;;;15.77;6.00;;;;;;;;;;5032270;28;20083;-53
2021/10/11 07:11:00;;;;;;;17.55;10.77;;;;;;;;;;5032465;28;20052;-53
2021/10/11 07:13:26;;;;;;;14.60;6.90;;;;;;;;;;5031796;28;20048;-53
2021/10/11 07:15:52;;;;;;;14.48;6.85;;;;;;;;;;5031895;28;20029;-53
2021/10/11 07:18:18;;;;;;;13.82;6.45;;;;;;;;;;5031999;28;20033;-54
2021/10/11 07:20:45;;;;;;;16.30;7.70;;;;;;;;;;5033340;28;20038;-54
2021/10/11 07:23:12;;;;;;;16.05;6.45;;;;;;;;;;5035623;28;20025;-54
2021/10/11 07:25:38;;;;;;;15.25;6.03;;;;;;;;;;5035213;28;20029;-54
2021/10/11 07:28:04;;;;;;;33.28;7.30;;;;;;;;;;5035698;28;20025;-54
2021/10/11 07:30:31;;;;;;;21.00;7.25;;;;;;;;;;5035043;28;20037;-54
2021/10/11 07:32:57;;;;;;;21.48;7.50;;;;;;;;;;5035646;28;20032;-54
2021/10/11 07:35:23;;;;;;;21.58;7.80;;;;;;;;;;5034878;28;20045;-54
2021/10/11 07:37:49;;;;;;;26.67;8.05;;;;;;;;;;5035270;28;20353;-54
2021/10/11 07:40:15;;;;;;;23.65;7.20;;;;;;;;;;5035166;28;20029;-54
2021/10/11 07:42:41;;;;;;;17.00;6.47;;;;;;;;;;5035329;28;20439;-53
2021/10/11 07:45:07;;;;;;;23.65;8.70;;;;;;;;;;5035005;28;20026;-53
2021/10/11 07:47:33;;;;;;;17.55;6.93;;;;;;;;;;5035640;28;20407;-53
2021/10/11 07:49:59;;;;;;;23.45;7.63;;;;;;;;;;5035083;28;20029;-54
2021/10/11 07:52:25;;;;;;;18.25;7.70;;;;;;;;;;5035429;28;20124;-54
2021/10/11 07:54:51;;;;;;;21.08;7.63;;;;;;;;;;5034453;28;20443;-54
2021/10/11 07:57:17;;;;;;;28.45;8.90;;;;;;;;;;5035205;28;20028;-53
2021/10/11 07:59:43;;;;;;;22.45;7.75;;;;;;;;;;5034939;28;20037;-54
2021/10/11 08:02:09;;;;;;;32.15;10.50;;;;;;;;;;5033492;28;20459;-54
2021/10/11 08:04:35;;;;;;;20.60;8.93;;;;;;;;;;5034314;28;20029;-54
2021/10/11 08:07:01;;;;;;;25.88;10.32;;;;;;;;;;5035082;28;20033;-54
2021/10/11 08:09:27;;;;;;;26.13;9.75;;;;;;;;;;5034778;28;20336;-53
2021/10/11 08:11:53;;;;;;;22.40;11.02;;;;;;;;;;5035043;28;20175;-54
2021/10/11 08:14:19;;;;;;;18.27;7.90;;;;;;;;;;5034368;28;20514;-53
2021/10/11 08:16:46;;;;;;;16.30;8.15;;;;;;;;;;5034850;28;20075;-53
2021/10/11 08:19:12;;;;;;;22.67;9.20;;;;;;;;;;5034705;28;20493;-54
2021/10/11 08:21:38;;;;;;;21.50;8.50;;;;;;;;;;5034511;28;20116;-53
2021/10/11 08:24:05;;;;;;;16.73;8.27;;;;;;;;;;5033893;28;20021;-53
2021/10/11 08:26:32;;;;;;;18.45;9.07;;;;;;;;;;5034810;28;20029;-54
2021/10/11 08:29:02;;;;;;;30.42;11.10;;;;;;;;;;5034875;28;20366;-54
2021/10/11 08:31:28;;;;;;;16.25;7.57;;;;;;;;;;5033597;28;20056;-54
2021/10/11 08:33:54;;;;;;;20.45;8.85;;;;;;;;;;5033492;28;20132;-54
2021/10/11 08:36:20;;;;;;;15.90;8.05;;;;;;;;;;5034461;28;20108;-53
2021/10/11 08:38:46;;;;;;;22.25;8.88;;;;;;;;;;5045960;28;20024;-54
2021/10/11 08:41:12;;;;;;;17.23;7.47;;;;;;;;;;5053966;28;20021;-53
2021/10/11 08:43:39;;;;;;;17.30;8.65;;;;;;;;;;5053212;28;20040;-54
2021/10/11 08:46:06;;;;;;;18.48;7.22;;;;;;;;;;5053906;28;20024;-54
2021/10/11 08:48:32;;;;;;;22.17;9.35;;;;;;;;;;5054282;28;20029;-53
2021/10/11 08:50:59;;;;;;;16.25;6.88;;;;;;;;;;5054337;28;20029;-54
2021/10/11 08:53:25;;;;;;;20.92;9.15;;;;;;;;;;5054083;28;20029;-54
2021/10/11 08:55:51;;;;;;;19.92;8.68;;;;;;;;;;5053198;28;20025;-54
2021/10/11 08:58:18;;;;;;;29.30;10.90;;;;;;;;;;5053511;28;20517;-53
2021/10/11 09:00:44;;;;;;;18.48;9.00;;;;;;;;;;5053802;28;20438;-54
2021/10/11 09:03:10;;;;;;;16.70;7.82;;;;;;;;;;5051739;28;20481;-54
2021/10/11 09:05:38;;;;;;;17.27;7.88;;;;;;;;;;5053019;28;20040;-54
2021/10/11 09:08:04;;;;;;;26.70;8.65;;;;;;;;;;5053683;28;20024;-54
2021/10/11 09:10:31;;;;;;;24.60;8.82;;;;;;;;;;5053676;28;20032;-53
2021/10/11 09:12:57;;;;;;;18.15;10.10;;;;;;;;;;5053286;28;20017;-54
2021/10/11 09:15:28;;;;;;;20.52;8.80;;;;;;;;;;5053063;28;20032;-53
2021/10/11 09:17:59;;;;;;;15.63;7.38;;;;;;;;;;5053190;28;20402;-54
2021/10/11 09:20:26;;;;;;;16.00;6.95;;;;;;;;;;5046871;28;20033;-54
2021/10/11 09:22:54;;;;;;;14.55;7.45;;;;;;;;;;5033789;28;20144;-53
2021/10/11 09:25:21;;;;;;;14.18;6.93;;;;;;;;;;5033171;28;20026;-53
2021/10/11 09:27:50;;;;;;;18.48;8.18;;;;;;;;;;5033416;28;20025;-53
2021/10/11 09:30:16;;;;;;;14.50;6.50;;;;;;;;;;5033136;28;20044;-53
2021/10/11 09:32:43;;;;;;;24.45;8.00;;;;;;;;;;5033270;28;20120;-53
2021/10/11 09:35:13;;;;;;;18.95;6.90;;;;;;;;;;5032423;28;20033;-54
2021/10/11 09:37:39;;;;;;;19.02;8.25;;;;;;;;;;5033716;28;20018;-54
2021/10/11 09:40:06;;;;;;;19.85;7.78;;;;;;;;;;5033366;28;20021;-54
2021/10/11 09:42:34;;;;;;;16.75;7.25;;;;;;;;;;5032907;28;20018;-53
2021/10/11 09:45:01;;;;;;;19.80;8.07;;;;;;;;;;5031998;28;20056;-54
2021/10/11 09:47:36;;;;;;;19.33;8.13;;;;;;;;;;5033176;28;20021;-54
2021/10/11 09:50:04;;;;;;;14.95;7.05;;;;;;;;;;5033540;28;20053;-53
2021/10/11 09:52:31;;;;;;;21.23;6.68;;;;;;;;;;5033740;28;20047;-53
2021/10/11 09:54:57;;;;;;;16.00;6.60;;;;;;;;;;5032004;28;20029;-53
2021/10/11 09:57:23;;;;;;;19.35;7.15;;;;;;;;;;5032797;28;20025;-53
2021/10/11 09:59:50;;;;;;;14.65;7.28;;;;;;;;;;5032902;28;20397;-53
2021/10/11 10:02:17;;;;;;;13.90;6.85;;;;;;;;;;5031375;28;20083;-54
2021/10/11 10:04:44;;;;;;;15.32;7.13;;;;;;;;;;5032175;28;20159;-53
2021/10/11 10:07:12;;;;;;;14.43;6.68;;;;;;;;;;5032658;28;20040;-54
2021/10/11 10:09:42;;;;;;;22.45;8.63;;;;;;;;;;5032844;28;20025;-53
2021/10/11 10:12:09;;;;;;;20.50;7.53;;;;;;;;;;5032652;28;20497;-54
2021/10/11 10:14:36;;;;;;;14.38;7.50;;;;;;;;;;5031802;28;20455;-54
2021/10/11 10:17:02;;;;;;;13.10;6.22;;;;;;;;;;5032831;28;20022;-53
2021/10/11 10:19:36;;;;;;;20.38;8.63;;;;;;;;;;5032714;28;20087;-54
2021/10/11 10:22:15;;;;;;;18.35;8.45;;;;;;;;;;5032710;28;20026;-53
2021/10/11 10:24:41;;;;;;;14.18;6.20;;;;;;;;;;5031760;28;20443;-54
2021/10/11 10:27:13;;;;;;;13.90;7.05;;;;;;;;;;5032749;28;20025;-54
2021/10/11 10:29:43;;;;;;;13.30;7.03;;;;;;;;;;5032757;28;20037;-54
2021/10/11 10:32:09;;;;;;;;;;;;;;;;;;5033006;28;20037;-53
2021/10/11 10:34:35;;;;;;;16.55;7.43;;;;;;;;;;5031659;28;19912;-53
2021/10/11 10:37:08;;;;;;;17.05;6.78;;;;;;;;;;5032969;28;20028;-54
2021/10/11 10:39:37;;;;;;;13.95;6.22;;;;;;;;;;5032903;28;20033;-54
2021/10/11 10:42:03;;;;;;;15.57;6.45;;;;;;;;;;5032372;28;20045;-53
2021/10/11 10:44:29;;;;;;;17.33;8.30;;;;;;;;;;5031520;28;20432;-54
2021/10/11 10:46:57;;;;;;;16.67;7.13;;;;;;;;;;5032296;28;20501;-54
2021/10/11 10:49:27;;;;;;;12.35;6.43;;;;;;;;;;5032685;28;20033;-54
2021/10/11 10:51:53;;;;;;;18.90;6.60;;;;;;;;;;5032653;28;20112;-54
2021/10/11 10:54:20;;;;;;;15.02;6.75;;;;;;;;;;5032426;28;20168;-54
2021/10/11 10:56:53;;;;;;;15.77;6.07;;;;;;;;;;5036467;28;20188;-54
2021/10/11 10:59:24;;;;;;;15.02;7.13;;;;;;;;;;5036054;28;20026;-54
2021/10/11 11:01:50;;;;;;;14.30;7.45;;;;;;;;;;5034661;28;20338;-54
2021/10/11 11:04:22;;;;;;;16.10;6.30;;;;;;;;;;5035573;28;20021;-54
2021/10/11 11:06:58;;;;;;;13.68;6.88;;;;;;;;;;5036370;28;20029;-53
2021/10/11 11:09:24;;;;;;;12.68;6.75;;;;;;;;;;5035726;28;20460;-53
2021/10/11 11:11:50;;;;;;;13.85;6.57;;;;;;;;;;5035920;28;20133;-54
2021/10/11 11:14:16;;;;;;;15.98;7.25;;;;;;;;;;5035022;28;20044;-54
2021/10/11 11:16:42;;;;;;;13.80;5.88;;;;;;;;;;5035853;28;20052;-53
2021/10/11 11:19:09;;;;;;;13.45;6.80;;;;;;;;;;5035728;28;20024;-54
2021/10/11 11:21:35;;;;;;;23.08;6.45;;;;;;;;;;5035894;28;20029;-53
2021/10/11 11:24:05;;;;;;;13.82;6.47;;;;;;;;;;5035067;28;20032;-53
2021/10/11 11:26:31;;;;;;;15.93;6.07;;;;;;;;;;5036158;28;20032;-54
2021/10/11 11:28:58;;;;;;;10.07;5.28;;;;;;;;;;5035458;28;20340;-53
2021/10/11 11:31:24;;;;;;;14.77;7.50;;;;;;;;;;5035588;28;20048;-54
2021/10/11 11:33:51;;;;;;;18.13;6.88;;;;;;;;;;5034628;28;20026;-54
2021/10/11 11:36:18;;;;;;;15.15;6.18;;;;;;;;;;5035801;28;20033;-54
2021/10/11 11:38:44;;;;;;;13.00;6.60;;;;;;;;;;5035404;28;20030;-53
2021/10/11 11:41:10;;;;;;;15.13;6.07;;;;;;;;;;5035554;28;20083;-54
2021/10/11 11:43:38;;;;;;;17.20;7.22;;;;;;;;;;5034573;28;20021;-54
2021/10/11 11:46:05;;;;;;;18.05;7.00;;;;;;;;;;5035255;28;20466;-54
2021/10/11 11:48:37;;;;;;;15.57;6.00;;;;;;;;;;5035472;28;20354;-54
2021/10/11 11:51:05;;;;;;;16.42;6.93;;;;;;;;;;5034717;28;20021;-54
2021/10/11 11:53:32;;;;;;;16.35;6.50;;;;;;;;;;5034842;28;20729;-53
2021/10/11 11:55:59;;;;;;;15.45;6.82;;;;;;;;;;5035006;28;20398;-54
2021/10/11 11:58:24;;;;;;;15.15;6.82;;;;;;;;;;5035248;28;20032;-53
2021/10/11 12:00:52;;;;;;;15.80;6.75;;;;;;;;;;5034730;28;20030;-54
2021/10/11 12:03:18;;;;;;;15.90;6.65;;;;;;;;;;5034018;28;20025;-53
2021/10/11 12:05:44;;;;;;;16.65;7.88;;;;;;;;;;5033552;28;20083;-54
2021/10/11 12:08:11;;;;;;;15.90;6.30;;;;;;;;;;5035128;28;20025;-53
2021/10/11 12:10:37;;;;;;;11.85;5.93;;;;;;;;;;5034638;28;20084;-54
2021/10/11 12:13:04;;;;;;;12.40;5.50;;;;;;;;;;5034961;28;20021;-53
2021/10/11 12:15:30;;;;;;;12.93;5.22;;;;;;;;;;5033710;28;20486;-53
2021/10/11 12:18:11;;;;;;;13.63;6.30;;;;;;;;;;5034556;28;20439;-54
2021/10/11 12:20:44;;;;;;;13.90;5.75;;;;;;;;;;5034785;28;20075;-53
2021/10/11 12:23:10;;;;;;;15.73;5.45;;;;;;;;;;5035006;28;20117;-53
2021/10/11 12:25:36;;;;;;;14.38;5.50;;;;;;;;;;5033939;28;20037;-54
2021/10/11 12:28:15;;;;;;;13.77;6.70;;;;;;;;;;5034248;28;20436;-54
2021/10/11 12:30:41;;;;;;;12.07;5.43;;;;;;;;;;5034079;28;20565;-54
2021/10/11 12:33:13;;;;;;;15.80;7.25;;;;;;;;;;5034730;28;20108;-54
2021/10/11 12:35:40;;;;;;;15.18;6.85;;;;;;;;;;5034016;28;20520;-54
2021/10/11 12:38:06;;;;;;;14.00;5.47;;;;;;;;;;5034712;28;20022;-54
2021/10/11 12:40:33;;;;;;;12.00;5.50;;;;;;;;;;5034798;28;20375;-54
2021/10/11 12:43:00;;;;;;;13.65;6.05;;;;;;;;;;5033995;28;20031;-54
2021/10/11 12:45:26;;;;;;;12.70;6.18;;;;;;;;;;5033239;28;20029;-54
2021/10/11 12:48:02;;;;;;;14.23;6.10;;;;;;;;;;5034212;28;20432;-54
2021/10/11 12:50:28;;;;;;;15.80;6.97;;;;;;;;;;5034181;28;20037;-54
2021/10/11 12:52:54;;;;;;;14.82;7.30;;;;;;;;;;5034142;28;20080;-53
2021/10/11 12:55:21;;;;;;;20.05;8.05;;;;;;;;;;5032742;28;20435;-53
2021/10/11 12:57:48;;;;;;;14.23;5.40;;;;;;;;;;5033985;28;20513;-53
2021/10/11 13:00:16;;;;;;;15.38;7.13;;;;;;;;;;5033960;28;20018;-54
2021/10/11 13:02:42;;;;;;;13.57;6.03;;;;;;;;;;5032882;28;20104;-53
2021/10/11 13:05:09;;;;;;;13.48;5.68;;;;;;;;;;5033279;28;20256;-53
2021/10/11 13:07:36;;;;;;;10.30;4.22;;;;;;;;;;5033600;28;20022;-54
2021/10/11 13:10:02;;;;;;;8.88;4.10;;;;;;;;;;5033960;28;20029;-54
2021/10/11 13:12:28;;;;;;;5.60;3.42;;;;;;;;;;5033831;28;20041;-54
2021/10/11 13:14:54;;;;;;;8.52;3.35;;;;;;;;;;5032885;28;20087;-54
2021/10/11 13:17:20;;;;;;;8.43;3.28;;;;;;;;;;5033334;28;20163;-54
2021/10/11 13:19:46;;;;;;;9.10;3.03;;;;;;;;;;5033611;28;20468;-54
2021/10/11 13:22:12;;;;;;;11.35;2.85;;;;;;;;;;5033559;28;20025;-54
2021/10/11 13:24:38;;;;;;;5.70;2.67;;;;;;;;;;5033115;28;20399;-54
2021/10/11 13:27:04;;;;;;;14.02;2.88;;;;;;;;;;5033535;28;20029;-54
2021/10/11 13:45:28;;;;;;;7.03;3.35;;;;;;;;;;5033140;28;20409;-54
2021/10/11 14:29:58;;;;;;;11.23;3.97;;;;;;;;;;5011750;28;20069;-53
2021/10/11 14:32:53;;;;;;;5.80;3.05;;;;;;;;;;5014057;28;20538;-53
2021/10/11 16:00:26;;;;;;;18.05;7.35;;;;;;;;;;5055440;28;20518;-54
2021/10/11 16:03:03;;;;;;;21.10;7.28;;;;;;;;;;5053915;28;20021;-54
2021/10/11 16:05:29;;;;;;;15.70;6.75;;;;;;;;;;5053890;28;20379;-54
2021/10/11 16:07:55;;;;;;;16.17;7.75;;;;;;;;;;5054899;28;20017;-54
2021/10/11 16:10:21;;;;;;;14.00;7.30;;;;;;;;;;5055074;28;20103;-54
2021/10/11 16:12:47;;;;;;;21.50;7.15;;;;;;;;;;5054474;28;20029;-54
2021/10/11 16:15:13;;;;;;;19.38;7.70;;;;;;;;;;5054218;28;20072;-54
2021/10/11 16:17:39;;;;;;;18.13;9.15;;;;;;;;;;5054569;28;20056;-54
2021/10/11 16:20:12;;;;;;;17.35;7.57;;;;;;;;;;5054246;28;20049;-54
2021/10/11 16:22:38;;;;;;;11.13;6.18;;;;;;;;;;5054591;28;20063;-54
2021/10/11 16:25:06;;;;;;;19.05;8.32;;;;;;;;;;5054298;28;20035;-54
2021/10/11 16:27:32;;;;;;;17.75;8.00;;;;;;;;;;5054772;28;20095;-54
2021/10/11 16:29:58;;;;;;;21.63;8.77;;;;;;;;;;5054586;28;20394;-53
2021/10/11 16:32:24;;;;;;;20.50;9.07;;;;;;;;;;5054054;28;20025;-54
2021/10/11 16:34:50;;;;;;;19.33;7.82;;;;;;;;;;5053350;28;20094;-54
2021/10/11 16:37:16;;;;;;;18.95;8.43;;;;;;;;;;5054562;28;20049;-54
2021/10/11 16:39:42;;;;;;;19.85;7.85;;;;;;;;;;5054270;28;20441;-54
2021/10/11 16:42:08;;;;;;;19.10;8.82;;;;;;;;;;5054334;28;20025;-54
2021/10/11 16:44:35;;;;;;;18.55;8.27;;;;;;;;;;5053414;28;20033;-53
2021/10/11 16:47:01;;;;;;;19.42;8.80;;;;;;;;;;5054274;28;20064;-54
2021/10/11 16:49:27;;;;;;;18.63;8.45;;;;;;;;;;5053923;28;20021;-54
2021/10/11 16:51:53;;;;;;;24.70;7.57;;;;;;;;;;5053745;28;20029;-53
2021/10/11 16:54:20;;;;;;;22.58;7.53;;;;;;;;;;5052907;28;20374;-53